createdAt,value
2023-02-04T00:01:24.543Z,6.50
2023-02-04T00:03:53.327Z,5.30
2023-02-04T00:06:21.751Z,5.20
2023-02-04T00:08:50.133Z,5.37
2023-02-04T00:11:18.765Z,5.30
2023-02-04T00:13:48.611Z,5.50
2023-02-04T00:16:17.029Z,6.03
2023-02-04T00:18:45.464Z,5.87
2023-02-04T00:21:13.850Z,5.70
2023-02-04T00:23:43.128Z,5.20
2023-02-04T00:26:11.458Z,4.83
2023-02-04T00:28:40.681Z,5.00
2023-02-04T00:31:10.441Z,5.10
2023-02-04T00:33:38.813Z,4.37
2023-02-04T00:36:07.503Z,5.30
2023-02-04T00:38:35.914Z,4.90
2023-02-04T00:41:04.286Z,5.37
2023-02-04T00:43:32.781Z,5.40
2023-02-04T00:46:01.272Z,4.77
2023-02-04T00:48:31.033Z,5.10
2023-02-04T00:50:59.360Z,4.63
2023-02-04T00:53:27.721Z,4.73
2023-02-04T00:55:56.188Z,4.80
2023-02-04T00:58:24.598Z,5.87
2023-02-04T01:00:53.068Z,4.90
2023-02-04T01:03:21.428Z,5.47
2023-02-04T01:05:51.260Z,4.73
2023-02-04T01:08:19.677Z,4.87
2023-02-04T01:10:48.376Z,4.27
2023-02-04T01:13:16.778Z,4.53
2023-02-04T01:15:45.363Z,4.30
2023-02-04T01:18:14.477Z,3.63
2023-02-04T01:20:42.844Z,4.33
2023-02-04T01:23:12.752Z,4.33
2023-02-04T01:25:41.117Z,4.47
2023-02-04T01:28:09.982Z,4.07
2023-02-04T01:30:38.354Z,4.23
2023-02-04T01:33:06.859Z,4.30
2023-02-04T01:35:35.393Z,3.50
2023-02-04T01:38:03.717Z,4.07
2023-02-04T01:40:33.543Z,4.67
2023-02-04T01:43:01.985Z,4.30
2023-02-04T01:45:33.939Z,3.83
2023-02-04T01:48:02.490Z,4.80
2023-02-04T01:50:31.139Z,3.70
2023-02-04T01:52:59.761Z,4.53
2023-02-04T01:55:29.084Z,4.50
2023-02-04T01:57:59.227Z,4.17
2023-02-04T02:00:28.371Z,3.93
2023-02-04T02:02:57.124Z,4.00
2023-02-04T02:05:26.158Z,4.40
2023-02-04T02:07:55.174Z,3.90
2023-02-04T02:10:23.701Z,4.17
2023-02-04T02:12:52.133Z,4.37
2023-02-04T02:15:22.156Z,4.77
2023-02-04T02:17:50.588Z,4.17
2023-02-04T02:20:19.619Z,5.87
2023-02-04T02:22:51.634Z,3.70
2023-02-04T02:25:21.529Z,4.37
2023-02-04T02:27:49.941Z,4.53
2023-02-04T02:30:19.917Z,3.47
2023-02-04T02:32:48.479Z,3.60
2023-02-04T02:35:17.042Z,4.27
2023-02-04T02:37:45.554Z,3.70
2023-02-04T02:40:14.437Z,4.33
2023-02-04T02:42:44.295Z,4.07
2023-02-04T02:45:13.920Z,3.63
2023-02-04T02:47:42.634Z,4.50
2023-02-04T02:50:11.344Z,4.10
2023-02-04T02:52:39.692Z,4.60
2023-02-04T02:55:09.679Z,5.20
2023-02-04T02:57:38.010Z,4.87
2023-02-04T03:00:15.026Z,4.13
2023-02-04T03:02:43.480Z,3.33
2023-02-04T03:05:12.151Z,4.53
2023-02-04T03:07:40.536Z,4.80
2023-02-04T03:10:08.974Z,4.33
2023-02-04T03:12:37.473Z,4.23
2023-02-04T03:15:06.081Z,4.80
2023-02-04T03:17:35.939Z,3.83
2023-02-04T03:20:04.353Z,3.97
2023-02-04T03:22:32.690Z,4.00
2023-02-04T03:25:01.190Z,5.00
2023-02-04T03:27:30.023Z,4.67
2023-02-04T03:29:58.323Z,4.50
2023-02-04T03:32:26.928Z,4.67
2023-02-04T03:34:57.018Z,4.77
2023-02-04T03:37:25.473Z,4.33
2023-02-04T03:39:53.885Z,4.90
2023-02-04T03:42:22.435Z,3.60
2023-02-04T03:44:51.108Z,4.57
2023-02-04T03:47:19.601Z,4.00
2023-02-04T03:49:47.990Z,4.27
2023-02-04T03:52:17.843Z,4.83
2023-02-04T03:54:46.288Z,4.30
2023-02-04T03:57:15.951Z,4.90
2023-02-04T03:59:44.335Z,4.23
2023-02-04T04:02:12.760Z,4.23
2023-02-04T04:04:41.285Z,3.87
2023-02-04T04:07:09.671Z,4.67
2023-02-04T04:09:42.211Z,4.80
2023-02-04T04:12:10.694Z,3.90
2023-02-04T04:14:39.089Z,4.70
2023-02-04T04:17:07.463Z,4.37
2023-02-04T04:19:36.093Z,4.57
2023-02-04T04:22:04.436Z,4.93
2023-02-04T04:24:33.646Z,4.93
2023-02-04T04:27:03.420Z,3.77
2023-02-04T04:29:31.757Z,4.57
2023-02-04T04:32:00.167Z,4.30
2023-02-04T04:34:28.517Z,4.60
2023-02-04T04:36:56.946Z,4.70
2023-02-04T04:39:26.373Z,4.80
2023-02-04T04:41:54.720Z,5.50
2023-02-04T04:44:24.516Z,4.77
2023-02-04T04:46:52.849Z,4.63
2023-02-04T04:49:21.357Z,4.20
2023-02-04T04:51:49.717Z,4.23
2023-02-04T04:54:18.176Z,4.23
2023-02-04T04:56:46.570Z,5.10
2023-02-04T04:59:15.283Z,5.40
2023-02-04T05:01:45.061Z,5.70
2023-02-04T05:04:13.673Z,5.83
2023-02-04T05:06:42.102Z,5.33
2023-02-04T05:09:10.740Z,5.03
2023-02-04T05:11:39.130Z,5.50
2023-02-04T05:14:07.668Z,5.50
2023-02-04T05:16:36.098Z,5.63
2023-02-04T05:19:05.887Z,4.73
2023-02-04T05:21:34.197Z,5.33
2023-02-04T05:24:02.626Z,5.10
2023-02-04T05:26:31.479Z,6.13
2023-02-04T05:29:01.077Z,5.43
2023-02-04T05:31:29.575Z,5.40
2023-02-04T05:33:58.080Z,5.53
2023-02-04T05:36:27.871Z,5.50
2023-02-04T05:38:56.281Z,5.13
2023-02-04T05:41:24.744Z,5.73
2023-02-04T05:43:53.214Z,5.00
2023-02-04T05:46:21.668Z,5.77
2023-02-04T05:48:50.190Z,5.80
2023-02-04T05:51:18.728Z,5.30
2023-02-04T05:53:48.686Z,5.70
2023-02-04T05:56:17.070Z,5.53
2023-02-04T05:58:45.488Z,5.67
2023-02-04T06:01:14.037Z,5.63
2023-02-04T06:03:42.448Z,5.93
2023-02-04T06:06:10.954Z,5.67
2023-02-04T06:08:39.490Z,5.27
2023-02-04T06:11:09.302Z,5.63
2023-02-04T06:13:37.889Z,5.47
2023-02-04T06:16:06.725Z,6.50
2023-02-04T06:18:35.461Z,6.07
2023-02-04T06:21:04.810Z,5.10
2023-02-04T06:23:34.432Z,6.27
2023-02-04T06:26:03.008Z,5.27
2023-02-04T06:28:32.755Z,5.77
2023-02-04T06:31:01.448Z,6.50
2023-02-04T06:33:30.141Z,7.07
2023-02-04T06:35:58.591Z,4.77
2023-02-04T06:38:27.123Z,5.23
2023-02-04T06:40:55.604Z,5.00
2023-02-04T06:43:25.547Z,6.13
2023-02-04T06:45:55.480Z,5.73
2023-02-04T06:48:23.948Z,5.27
2023-02-04T06:50:52.557Z,5.53
2023-02-04T06:53:20.940Z,6.87
2023-02-04T06:55:49.514Z,6.13
2023-02-04T06:58:17.963Z,5.60
2023-02-04T07:00:46.506Z,6.83
2023-02-04T07:03:16.389Z,6.10
2023-02-04T07:05:44.819Z,5.70
2023-02-04T07:08:13.456Z,6.77
2023-02-04T07:10:41.942Z,6.03
2023-02-04T07:13:10.494Z,5.87
2023-02-04T07:15:38.955Z,6.83
2023-02-04T07:18:07.591Z,7.03
2023-02-04T07:20:37.394Z,6.00
2023-02-04T07:23:06.237Z,5.87
2023-02-04T07:25:34.620Z,5.80
2023-02-04T07:28:05.498Z,5.70
2023-02-04T07:30:34.921Z,6.70
2023-02-04T07:33:03.586Z,6.27
2023-02-04T07:35:32.050Z,6.20
2023-02-04T07:38:01.848Z,6.07
2023-02-04T07:40:30.764Z,6.03
2023-02-04T07:42:59.491Z,5.73
2023-02-04T07:45:27.976Z,6.70
2023-02-04T07:47:56.676Z,7.57
2023-02-04T07:50:25.097Z,6.93
2023-02-04T07:52:53.552Z,7.07
2023-02-04T07:55:23.445Z,7.10
2023-02-04T07:57:51.958Z,7.07
2023-02-04T08:00:20.979Z,7.57
2023-02-04T08:02:49.418Z,7.43
2023-02-04T08:05:18.100Z,7.40
2023-02-04T08:07:46.621Z,7.87
2023-02-04T08:10:15.110Z,7.80
2023-02-04T08:12:44.894Z,7.20
2023-02-04T08:15:13.578Z,7.63
2023-02-04T08:17:43.137Z,7.43
2023-02-04T08:20:12.547Z,7.33
2023-02-04T08:22:41.148Z,8.97
2023-02-04T08:25:10.244Z,7.97
2023-02-04T08:27:38.634Z,7.77
2023-02-04T08:30:09.077Z,9.17
2023-02-04T08:32:37.495Z,9.80
2023-02-04T08:35:06.569Z,9.43
2023-02-04T08:37:35.090Z,9.47
2023-02-04T08:40:03.486Z,10.17
2023-02-04T08:42:32.154Z,9.97
2023-02-04T08:45:00.625Z,9.10
2023-02-04T08:47:30.548Z,9.20
2023-02-04T08:49:58.894Z,9.77
2023-02-04T08:52:27.278Z,9.63
2023-02-04T08:54:55.647Z,10.47
2023-02-04T08:57:24.083Z,10.27
2023-02-04T08:59:52.474Z,10.77
2023-02-04T09:02:20.981Z,9.43
2023-02-04T09:04:51.095Z,10.73
2023-02-04T09:07:20.087Z,9.83
2023-02-04T09:09:48.492Z,9.40
2023-02-04T09:12:16.948Z,9.83
2023-02-04T09:14:45.906Z,9.87
2023-02-04T09:17:14.246Z,9.70
2023-02-04T09:19:42.629Z,9.97
2023-02-04T09:22:13.314Z,10.07
2023-02-04T09:24:41.734Z,9.40
2023-02-04T09:27:10.725Z,10.90
2023-02-04T09:29:39.451Z,10.43
2023-02-04T09:32:08.315Z,10.53
2023-02-04T09:34:36.666Z,10.17
2023-02-04T09:37:05.205Z,10.70
2023-02-04T09:39:35.275Z,10.90
2023-02-04T09:42:03.680Z,9.53
2023-02-04T09:44:32.115Z,10.33
2023-02-04T09:47:01.354Z,9.63
2023-02-04T09:49:29.819Z,9.90
2023-02-04T09:51:58.386Z,8.57
2023-02-04T09:54:26.976Z,8.33
2023-02-04T09:56:57.620Z,7.63
2023-02-04T09:59:28.531Z,9.03
2023-02-04T10:01:57.583Z,9.53
2023-02-04T10:04:26.049Z,7.00
2023-02-04T10:06:54.476Z,6.73
2023-02-04T10:09:22.960Z,6.87
2023-02-04T10:11:51.553Z,6.77
2023-02-04T10:14:22.193Z,6.13
2023-02-04T10:16:51.184Z,4.80
2023-02-04T10:19:19.689Z,5.70
2023-02-04T10:21:49.311Z,5.53
2023-02-04T10:24:18.223Z,6.00
2023-02-04T10:26:46.869Z,5.23
2023-02-04T10:29:16.059Z,3.80
2023-02-04T10:31:46.663Z,3.67
2023-02-04T10:34:18.178Z,5.00
2023-02-04T10:36:47.810Z,4.20
2023-02-04T10:39:16.837Z,3.90
2023-02-04T10:41:49.916Z,4.63
2023-02-04T10:44:18.888Z,4.50
2023-02-04T10:46:48.678Z,4.37
2023-02-04T10:49:18.771Z,5.00
2023-02-04T10:51:47.363Z,5.03
2023-02-04T10:54:31.185Z,4.80
2023-02-04T10:57:00.590Z,5.60
2023-02-04T10:59:29.262Z,4.97
2023-02-04T11:01:59.487Z,6.00
2023-02-04T11:04:28.848Z,6.43
2023-02-04T11:06:57.508Z,5.97
2023-02-04T11:09:25.873Z,6.50
2023-02-04T11:11:54.325Z,7.27
2023-02-04T11:14:28.333Z,6.30
2023-02-04T11:17:00.718Z,6.50
2023-02-04T11:19:34.793Z,6.93
2023-02-04T11:22:07.311Z,7.13
2023-02-04T11:24:36.051Z,6.90
2023-02-04T11:27:09.079Z,6.03
2023-02-04T11:29:39.070Z,6.47
2023-02-04T11:32:08.146Z,6.10
2023-02-04T11:34:51.282Z,6.53
2023-02-04T11:37:34.556Z,5.80
2023-02-04T11:40:02.931Z,5.43
2023-02-04T11:42:33.388Z,4.90
2023-02-04T11:45:02.371Z,5.10
2023-02-04T11:47:35.839Z,5.60
2023-02-04T11:50:06.326Z,5.10
2023-02-04T11:52:36.955Z,5.30
2023-02-04T11:55:05.328Z,5.10
2023-02-04T11:57:39.540Z,6.40
2023-02-04T12:00:08.405Z,5.77
2023-02-04T12:02:43.258Z,6.07
2023-02-04T12:05:13.763Z,5.37
2023-02-04T12:07:42.122Z,5.80
2023-02-04T12:10:16.254Z,6.47
2023-02-04T12:12:45.120Z,7.87
2023-02-04T12:15:17.026Z,7.17
2023-02-04T12:17:46.848Z,6.20
2023-02-04T12:20:16.737Z,5.77
2023-02-04T12:22:45.192Z,5.07
2023-02-04T12:25:16.935Z,5.60
2023-02-04T12:27:45.450Z,5.03
2023-02-04T12:30:14.434Z,4.97
2023-02-04T12:32:42.861Z,4.77
2023-02-04T12:35:11.338Z,6.00
2023-02-04T12:37:41.152Z,7.80
2023-02-04T12:40:10.417Z,6.70
2023-02-04T12:42:38.840Z,6.00
2023-02-04T12:45:07.368Z,5.60
2023-02-04T12:47:35.780Z,5.33
2023-02-04T12:50:04.117Z,5.03
2023-02-04T12:52:32.801Z,5.17
2023-02-04T12:55:05.132Z,5.03
2023-02-04T12:57:33.686Z,5.43
2023-02-04T13:00:02.144Z,5.50
2023-02-04T13:02:31.170Z,5.37
2023-02-04T13:04:59.554Z,5.63
2023-02-04T13:07:28.129Z,5.87
2023-02-04T13:09:57.415Z,6.30
2023-02-04T13:12:27.272Z,7.17
2023-02-04T13:14:55.812Z,7.17
2023-02-04T13:17:24.240Z,7.87
2023-02-04T13:19:52.780Z,7.00
2023-02-04T13:22:21.339Z,7.77
2023-02-04T13:24:49.943Z,7.20
2023-02-04T13:27:18.381Z,8.03
2023-02-04T13:29:48.232Z,7.53
2023-02-04T13:32:16.589Z,9.93
2023-02-04T13:34:45.071Z,9.17
2023-02-04T13:37:13.477Z,9.33
2023-02-04T13:43:04.241Z,9.67
2023-02-04T13:45:34.403Z,9.80
2023-02-04T13:48:02.894Z,10.13
2023-02-04T13:50:31.524Z,10.33
2023-02-04T13:53:00.021Z,11.43
2023-02-04T13:55:28.340Z,12.10
2023-02-04T13:57:56.682Z,13.10
2023-02-04T14:00:25.115Z,12.83
2023-02-04T14:02:56.399Z,13.53
2023-02-04T14:05:24.845Z,14.17
2023-02-04T14:07:53.180Z,14.60
2023-02-04T14:10:24.844Z,13.67
2023-02-04T14:12:53.257Z,13.50
2023-02-04T14:15:21.647Z,13.10
2023-02-04T14:17:49.931Z,14.07
2023-02-04T14:20:19.943Z,13.90
2023-02-04T14:22:48.412Z,13.67
2023-02-04T14:25:16.909Z,14.07
2023-02-04T14:27:45.375Z,14.80
2023-02-04T14:30:17.591Z,15.97
2023-02-04T14:32:45.899Z,15.23
2023-02-04T14:35:14.302Z,16.93
2023-02-04T14:37:44.030Z,15.30
2023-02-04T14:40:13.070Z,15.60
2023-02-04T14:42:41.491Z,16.27
2023-02-04T14:45:10.204Z,16.87
2023-02-04T14:47:38.722Z,15.90
2023-02-04T14:50:07.539Z,16.37
2023-02-04T14:52:35.969Z,16.63
2023-02-04T14:55:05.938Z,15.63
2023-02-04T14:57:34.325Z,17.17
2023-02-04T15:00:02.628Z,17.33
2023-02-04T15:02:31.147Z,17.37
2023-02-04T15:04:59.505Z,16.93
2023-02-04T15:07:28.037Z,17.70
2023-02-04T15:09:56.431Z,18.37
2023-02-04T15:12:26.263Z,17.63
2023-02-04T15:14:54.768Z,16.90
2023-02-04T15:17:23.095Z,17.37
2023-02-04T15:19:51.582Z,16.70
2023-02-04T15:22:20.907Z,16.60
2023-02-04T15:24:49.432Z,16.77
2023-02-04T15:27:17.850Z,15.17
2023-02-04T15:29:47.584Z,16.47
2023-02-04T15:32:16.028Z,16.80
2023-02-04T15:34:44.379Z,16.77
2023-02-04T15:37:13.554Z,15.53
2023-02-04T15:39:43.598Z,15.40
2023-02-04T15:42:11.901Z,16.80
2023-02-04T15:44:40.291Z,15.73
2023-02-04T15:47:10.042Z,15.77
2023-02-04T15:49:38.810Z,15.53
2023-02-04T15:52:13.457Z,16.20
2023-02-04T15:54:44.786Z,15.47
2023-02-04T15:57:13.082Z,14.67
2023-02-04T15:59:41.585Z,16.23
2023-02-04T16:02:12.674Z,15.20
2023-02-04T16:04:41.656Z,14.40
2023-02-04T16:07:10.059Z,15.90
2023-02-04T16:09:38.534Z,14.90
2023-02-04T16:12:07.149Z,14.83
2023-02-04T16:14:35.475Z,16.13
2023-02-04T16:17:03.862Z,15.57
2023-02-04T16:19:33.539Z,15.13
2023-02-04T16:22:02.194Z,15.00
2023-02-04T16:24:30.516Z,15.53
2023-02-04T16:26:58.980Z,15.00
2023-02-04T16:29:27.669Z,15.07
2023-02-04T16:31:57.959Z,13.93
2023-02-04T16:34:26.707Z,14.97
2023-02-04T16:36:56.521Z,15.20
2023-02-04T16:39:24.863Z,14.43
2023-02-04T16:41:53.331Z,13.83
2023-02-04T16:44:21.699Z,14.50
2023-02-04T16:46:50.876Z,14.43
2023-02-04T16:49:20.364Z,13.87
2023-02-04T16:51:48.664Z,13.77
2023-02-04T16:54:18.828Z,13.67
2023-02-04T16:56:47.474Z,14.03
2023-02-04T16:59:15.927Z,12.97
2023-02-04T17:01:44.453Z,12.30
2023-02-04T17:04:13.655Z,12.20
2023-02-04T17:06:42.013Z,10.67
2023-02-04T17:09:10.415Z,11.20
2023-02-04T17:11:40.200Z,10.73
2023-02-04T17:14:09.397Z,10.20
2023-02-04T17:16:37.918Z,11.57
2023-02-04T17:19:06.585Z,11.33
2023-02-04T17:21:35.190Z,11.83
2023-02-04T17:24:04.795Z,12.83
2023-02-04T17:26:37.304Z,12.53
2023-02-04T17:29:07.673Z,14.57
2023-02-04T17:31:36.476Z,13.80
2023-02-04T17:34:04.906Z,13.13
2023-02-04T17:36:33.381Z,14.13
2023-02-04T17:39:02.007Z,14.57
2023-02-04T17:41:31.039Z,14.33
2023-02-04T17:44:00.081Z,15.20
2023-02-04T17:46:30.103Z,15.70
2023-02-04T17:48:59.396Z,14.97
2023-02-04T17:51:27.865Z,16.17
2023-02-04T17:53:56.170Z,15.87
2023-02-04T17:56:24.563Z,15.90
2023-02-04T17:58:53.187Z,17.17
2023-02-04T18:01:25.392Z,15.87
2023-02-04T18:03:55.741Z,16.30
2023-02-04T18:06:27.279Z,16.53
2023-02-04T18:09:01.282Z,16.97
2023-02-04T18:11:31.790Z,16.60
2023-02-04T18:14:02.044Z,16.97
2023-02-04T18:16:31.372Z,17.40
2023-02-04T18:19:01.369Z,16.47
2023-02-04T18:21:30.208Z,17.83
2023-02-04T18:24:02.117Z,18.60
2023-02-04T18:26:30.440Z,17.57
2023-02-04T18:28:59.367Z,17.53
2023-02-04T18:31:31.157Z,16.63
2023-02-04T18:34:00.996Z,17.00
2023-02-04T18:36:29.405Z,16.43
2023-02-04T18:38:57.841Z,17.00
2023-02-04T18:41:31.434Z,17.27
2023-02-04T18:44:02.601Z,16.93
2023-02-04T18:46:31.900Z,17.43
2023-02-04T18:49:09.522Z,17.63
2023-02-04T18:51:41.137Z,17.50
2023-02-04T18:54:28.926Z,16.90
2023-02-04T18:57:01.849Z,16.80
2023-02-04T18:59:30.286Z,17.13
2023-02-04T19:01:58.666Z,18.23
2023-02-04T19:04:27.144Z,17.80
2023-02-04T19:06:57.311Z,17.43
2023-02-04T19:09:26.134Z,18.30
2023-02-04T19:11:54.694Z,16.90
2023-02-04T19:14:24.102Z,18.47
2023-02-04T19:16:53.401Z,19.07
2023-02-04T19:19:42.623Z,20.17
2023-02-04T19:22:16.712Z,19.37
2023-02-04T19:24:45.028Z,18.97
2023-02-04T19:27:24.617Z,19.33
2023-02-04T19:29:52.989Z,20.30
2023-02-04T19:32:31.081Z,20.03
2023-02-04T19:35:00.001Z,20.30
2023-02-04T19:37:30.592Z,19.17
2023-02-04T19:39:59.151Z,18.73
2023-02-04T19:42:31.720Z,17.30
2023-02-04T19:45:00.368Z,17.10
2023-02-04T19:47:29.551Z,15.93
2023-02-04T19:50:02.316Z,15.67
2023-02-04T19:52:34.783Z,16.40
2023-02-04T19:55:24.664Z,15.67
2023-02-04T19:57:54.072Z,14.47
2023-02-04T20:00:30.055Z,15.43
2023-02-04T20:02:58.889Z,15.17
2023-02-04T20:05:29.273Z,15.03
2023-02-04T20:07:59.003Z,14.57
2023-02-04T20:10:27.782Z,15.83
2023-02-04T20:12:56.459Z,15.57
2023-02-04T20:15:24.913Z,15.53
2023-02-04T20:17:53.731Z,16.53
2023-02-04T20:20:26.235Z,15.57
2023-02-04T20:22:55.431Z,15.93
2023-02-04T20:25:34.858Z,16.83
2023-02-04T20:28:04.853Z,16.57
2023-02-04T20:30:33.298Z,17.80
2023-02-04T20:33:02.558Z,17.20
2023-02-04T20:35:49.904Z,17.27
2023-02-04T20:38:18.798Z,17.40
2023-02-04T20:40:49.132Z,17.27
2023-02-04T20:43:19.453Z,18.00
2023-02-04T20:45:49.041Z,17.53
2023-02-04T20:48:29.224Z,17.60
2023-02-04T20:50:58.638Z,17.87
2023-02-04T20:53:28.428Z,17.67
2023-02-04T20:56:03.889Z,17.77
2023-02-04T20:58:37.798Z,17.80
2023-02-04T21:01:09.127Z,18.87
2023-02-04T21:03:37.997Z,17.37
2023-02-04T21:06:17.116Z,18.40
2023-02-04T21:08:46.120Z,18.10
2023-02-04T21:11:15.969Z,17.37
2023-02-04T21:13:44.385Z,18.80
2023-02-04T21:16:12.899Z,17.50
2023-02-04T21:18:46.305Z,18.67
2023-02-04T21:21:15.045Z,18.93
2023-02-04T21:23:43.561Z,20.00
2023-02-04T21:26:11.912Z,18.90
2023-02-04T21:28:41.772Z,18.77
2023-02-04T21:31:11.636Z,19.43
2023-02-04T21:33:40.323Z,19.40
2023-02-04T21:36:09.454Z,20.50
2023-02-04T21:38:38.174Z,19.23
2023-02-04T21:41:06.750Z,19.40
2023-02-04T21:43:35.242Z,20.07
2023-02-04T21:46:05.223Z,19.67
2023-02-04T21:48:33.711Z,19.40
2023-02-04T21:51:02.128Z,19.70
2023-02-04T21:53:31.845Z,19.33
2023-02-04T21:56:00.492Z,18.20
2023-02-04T21:58:29.074Z,17.93
2023-02-04T22:00:57.478Z,19.33
2023-02-04T22:03:27.414Z,19.70
2023-02-04T22:05:55.807Z,19.00
2023-02-04T22:08:24.438Z,18.30
2023-02-04T22:10:53.058Z,18.83
2023-02-04T22:13:21.830Z,18.57
2023-02-04T22:15:50.268Z,17.20
2023-02-04T22:18:21.941Z,17.73
2023-02-04T22:20:55.007Z,17.37
2023-02-04T22:23:23.624Z,17.87
2023-02-04T22:25:51.981Z,16.57
2023-02-04T22:28:20.726Z,16.10
2023-02-04T22:30:49.409Z,15.87
2023-02-04T22:33:17.985Z,16.43
2023-02-04T22:35:48.462Z,14.77
2023-02-04T22:38:20.138Z,16.33
2023-02-04T22:40:49.206Z,14.60
2023-02-04T22:43:17.659Z,15.47
2023-02-04T22:45:46.081Z,15.70
2023-02-04T22:48:14.495Z,14.60
2023-02-04T22:50:43.150Z,15.70
2023-02-04T22:53:13.968Z,14.63
2023-02-04T22:55:43.640Z,15.67
2023-02-04T22:58:12.400Z,14.70
2023-02-04T23:00:41.855Z,13.57
2023-02-04T23:03:10.486Z,15.30
2023-02-04T23:05:39.507Z,13.90
2023-02-04T23:08:08.364Z,14.47
2023-02-04T23:10:39.282Z,13.67
2023-02-04T23:13:09.874Z,13.60
2023-02-04T23:15:38.340Z,12.93
2023-02-04T23:18:07.141Z,12.83
2023-02-04T23:20:35.730Z,12.47
2023-02-04T23:23:04.810Z,13.57
2023-02-04T23:25:33.790Z,13.60
2023-02-04T23:28:02.316Z,13.33
2023-02-04T23:30:32.258Z,12.63
2023-02-04T23:33:01.112Z,12.37
2023-02-04T23:35:29.515Z,12.00
2023-02-04T23:37:58.081Z,12.50
2023-02-04T23:40:26.627Z,12.10
2023-02-04T23:42:55.193Z,13.20
2023-02-04T23:45:23.726Z,12.73
2023-02-04T23:47:53.552Z,13.33
2023-02-04T23:50:22.104Z,14.13
2023-02-04T23:52:50.546Z,13.37
2023-02-04T23:55:18.959Z,12.67
2023-02-04T23:57:49.654Z,12.70
